Ferry Kyoto II — JI3701 — position and weather

sailwx.info

Track history (hours):
 
Tides and Currents Weather Stations Pressure Air Temp Water Temp Dewpoint Dewpoint Depression Visibility Wind Speed Wind Dir Waves Ship Positions

Ferry Kyoto II

Last reported at 2016-Jul-26 09:33 UTC. Time now 2016-Jul-27 07:51 UTC.
Position N 34°36' E 134°54'.

Length 167 m; draft 5.9 m.

Type: Passenger vessel. MMSI: 431301641.

Date/timePositionNaut miles runAvg speedWind from/ knotsBaromVisibWave heightAir tempDewpointWater temp
2016-Jul-26 09:33N 34°36' E 134°54'2019.5
2016-Jul-26 08:33N 34°36' E 135°18'7 5.9
2016-Jul-26 07:23N 34°37' E 135°26'0 0.0
2016-Jul-26 06:23N 34°37' E 135°26'0 0.0
2016-Jul-26 04:29N 34°37' E 135°26'0 0.0
2016-Jul-26 03:29N 34°37' E 135°26'0 0.0
2016-Jul-26 02:29N 34°37' E 135°26'0 0.0
2016-Jul-26 01:29N 34°37' E 135°26'0 0.0
2016-Jul-26 00:23N 34°37' E 135°26'0 0.0
2016-Jul-25 23:29N 34°37' E 135°26'0 0.0
2016-Jul-25 22:29N 34°37' E 135°26'0 0.0
2016-Jul-25 21:29N 34°37' E 135°26'0 0.0
2016-Jul-25 20:29N 34°37' E 135°26'1212.3
2016-Jul-25 19:33N 34°35' E 135°12'1919.4
2016-Jul-25 18:33N 34°33' E 134°49'6 0.2
2016-Jul-24 09:33N 34°36' E 134°55'2019.5
2016-Jul-24 08:33N 34°37' E 135°19'6 5.9
2016-Jul-24 07:33N 34°37' E 135°26'0 0.0
2016-Jul-24 06:33N 34°37' E 135°26'0 0.0
2016-Jul-24 05:27N 34°37' E 135°26'0 0.0
2016-Jul-24 04:33N 34°37' E 135°26'0 0.0
2016-Jul-24 03:33N 34°37' E 135°26'0 0.0
2016-Jul-24 02:27N 34°37' E 135°26'0 0.0
2016-Jul-24 01:27N 34°37' E 135°26'0 0.0
2016-Jul-24 00:33N 34°37' E 135°26'0 0.0
2016-Jul-23 23:27N 34°37' E 135°26'0 0.0
2016-Jul-23 22:33N 34°37' E 135°26'0 0.0
2016-Jul-23 21:27N 34°37' E 135°26'0 0.0
2016-Jul-23 20:33N 34°37' E 135°26'1211.7
2016-Jul-23 19:33N 34°35' E 135°12'2020.0
2016-Jul-23 18:33N 34°33' E 134°48'10 0.3
2016-Jul-22 09:33N 34°38' E 134°58'1919.4
2016-Jul-22 08:33N 34°37' E 135°22'4 3.4
2016-Jul-22 07:31N 34°37' E 135°26'0 0.0
2016-Jul-22 04:31N 34°37' E 135°26'0 0.0
2016-Jul-22 03:31N 34°37' E 135°26'0 0.0
2016-Jul-22 01:21N 34°37' E 135°26'0 0.0
2016-Jul-22 00:20N 34°37' E 135°26'0 0.0
2016-Jul-21 23:32N 34°37' E 135°26'0 0.0
2016-Jul-21 22:32N 34°37' E 135°26'0 0.0
2016-Jul-21 20:33N 34°37' E 135°26'1313.1
2016-Jul-21 19:33N 34°35' E 135°10'2019.7
2016-Jul-21 18:34N 34°33' E 134°47'6 0.2
2016-Jul-20 09:33N 34°35' E 134°53'2120.8
2016-Jul-20 08:33N 34°37' E 135°18'6 6.4
2016-Jul-20 07:32N 34°37' E 135°26'0 0.0
2016-Jul-20 06:32N 34°37' E 135°26'0 0.0
2016-Jul-20 05:26N 34°37' E 135°26'0 0.0
2016-Jul-20 04:26N 34°37' E 135°26'0 0.0
2016-Jul-20 03:32N 34°37' E 135°26'0 0.0
2016-Jul-20 02:32N 34°37' E 135°26'0 0.0
2016-Jul-20 01:32N 34°37' E 135°26'0 0.0
2016-Jul-20 00:32N 34°37' E 135°26'0 0.0
2016-Jul-19 23:32N 34°37' E 135°26'0 0.0
2016-Jul-19 22:26N 34°37' E 135°26'0 0.0
2016-Jul-19 21:32N 34°37' E 135°26'0 0.0
2016-Jul-19 20:32N 34°37' E 135°26'1111.6
2016-Jul-19 19:33N 34°35' E 135°12'2019.5
2016-Jul-19 18:32N 34°33' E 134°48'4 0.1
2016-Jul-18 09:31N 34°35' E 134°52'2121.4
2016-Jul-18 08:33N 34°36' E 135°17'7 6.1
2016-Jul-18 07:22N 34°37' E 135°26'0 0.0
2016-Jul-18 06:10N 34°37' E 135°26'0 0.0
2016-Jul-18 05:22N 34°37' E 135°26'0 0.0
2016-Jul-18 04:28N 34°37' E 135°26'0 0.0
2016-Jul-18 03:28N 34°37' E 135°26'0 0.0
2016-Jul-18 01:22N 34°37' E 135°26'0 0.0
2016-Jul-18 00:10N 34°37' E 135°26'0 0.0
2016-Jul-17 23:28N 34°37' E 135°26'0 0.0
2016-Jul-17 22:22N 34°37' E 135°26'0 0.0
2016-Jul-17 21:28N 34°37' E 135°26'0 0.0
2016-Jul-17 20:31N 34°37' E 135°26'1111.9
2016-Jul-17 19:33N 34°35' E 135°12'16 0.5
2016-Jul-16 09:34N 34°35' E 134°52'  
Track history (hours):
 
Tides and Currents Weather Stations Pressure Air Temp Water Temp Dewpoint Dewpoint Depression Visibility Wind Speed Wind Dir Waves Ship Positions

Ferry Kyoto II

Last reported at 2016-Jul-26 09:33 UTC. Time now 2016-Jul-27 07:51 UTC.
Position N 34°36' E 134°54'.

Length 167 m; draft 5.9 m.

Type: Passenger vessel. MMSI: 431301641.

Date/timePositionNaut miles runAvg speedWind from/ knotsBaromVisibWave heightAir tempDewpointWater temp
2016-Jul-26 09:33N 34°36' E 134°54'2019.5
2016-Jul-26 08:33N 34°36' E 135°18'7 5.9
2016-Jul-26 07:23N 34°37' E 135°26'0 0.0
2016-Jul-26 06:23N 34°37' E 135°26'0 0.0
2016-Jul-26 04:29N 34°37' E 135°26'0 0.0
2016-Jul-26 03:29N 34°37' E 135°26'0 0.0
2016-Jul-26 02:29N 34°37' E 135°26'0 0.0
2016-Jul-26 01:29N 34°37' E 135°26'0 0.0
2016-Jul-26 00:23N 34°37' E 135°26'0 0.0
2016-Jul-25 23:29N 34°37' E 135°26'0 0.0
2016-Jul-25 22:29N 34°37' E 135°26'0 0.0
2016-Jul-25 21:29N 34°37' E 135°26'0 0.0
2016-Jul-25 20:29N 34°37' E 135°26'1212.3
2016-Jul-25 19:33N 34°35' E 135°12'1919.4
2016-Jul-25 18:33N 34°33' E 134°49'6 0.2
2016-Jul-24 09:33N 34°36' E 134°55'2019.5
2016-Jul-24 08:33N 34°37' E 135°19'6 5.9
2016-Jul-24 07:33N 34°37' E 135°26'0 0.0
2016-Jul-24 06:33N 34°37' E 135°26'0 0.0
2016-Jul-24 05:27N 34°37' E 135°26'0 0.0
2016-Jul-24 04:33N 34°37' E 135°26'0 0.0
2016-Jul-24 03:33N 34°37' E 135°26'0 0.0
2016-Jul-24 02:27N 34°37' E 135°26'0 0.0
2016-Jul-24 01:27N 34°37' E 135°26'0 0.0
2016-Jul-24 00:33N 34°37' E 135°26'0 0.0
2016-Jul-23 23:27N 34°37' E 135°26'0 0.0
2016-Jul-23 22:33N 34°37' E 135°26'0 0.0
2016-Jul-23 21:27N 34°37' E 135°26'0 0.0
2016-Jul-23 20:33N 34°37' E 135°26'1211.7
2016-Jul-23 19:33N 34°35' E 135°12'2020.0
2016-Jul-23 18:33N 34°33' E 134°48'10 0.3
2016-Jul-22 09:33N 34°38' E 134°58'1919.4
2016-Jul-22 08:33N 34°37' E 135°22'4 3.4
2016-Jul-22 07:31N 34°37' E 135°26'0 0.0
2016-Jul-22 04:31N 34°37' E 135°26'0 0.0
2016-Jul-22 03:31N 34°37' E 135°26'0 0.0
2016-Jul-22 01:21N 34°37' E 135°26'0 0.0
2016-Jul-22 00:20N 34°37' E 135°26'0 0.0
2016-Jul-21 23:32N 34°37' E 135°26'0 0.0
2016-Jul-21 22:32N 34°37' E 135°26'0 0.0
2016-Jul-21 20:33N 34°37' E 135°26'1313.1
2016-Jul-21 19:33N 34°35' E 135°10'2019.7
2016-Jul-21 18:34N 34°33' E 134°47'6 0.2
2016-Jul-20 09:33N 34°35' E 134°53'2120.8
2016-Jul-20 08:33N 34°37' E 135°18'6 6.4
2016-Jul-20 07:32N 34°37' E 135°26'0 0.0
2016-Jul-20 06:32N 34°37' E 135°26'0 0.0
2016-Jul-20 05:26N 34°37' E 135°26'0 0.0
2016-Jul-20 04:26N 34°37' E 135°26'0 0.0
2016-Jul-20 03:32N 34°37' E 135°26'0 0.0
2016-Jul-20 02:32N 34°37' E 135°26'0 0.0
2016-Jul-20 01:32N 34°37' E 135°26'0 0.0
2016-Jul-20 00:32N 34°37' E 135°26'0 0.0
2016-Jul-19 23:32N 34°37' E 135°26'0 0.0
2016-Jul-19 22:26N 34°37' E 135°26'0 0.0
2016-Jul-19 21:32N 34°37' E 135°26'0 0.0
2016-Jul-19 20:32N 34°37' E 135°26'1111.6
2016-Jul-19 19:33N 34°35' E 135°12'2019.5
2016-Jul-19 18:32N 34°33' E 134°48'4 0.1
2016-Jul-18 09:31N 34°35' E 134°52'2121.4
2016-Jul-18 08:33N 34°36' E 135°17'7 6.1
2016-Jul-18 07:22N 34°37' E 135°26'0 0.0
2016-Jul-18 06:10N 34°37' E 135°26'0 0.0
2016-Jul-18 05:22N 34°37' E 135°26'0 0.0
2016-Jul-18 04:28N 34°37' E 135°26'0 0.0
2016-Jul-18 03:28N 34°37' E 135°26'0 0.0
2016-Jul-18 01:22N 34°37' E 135°26'0 0.0
2016-Jul-18 00:10N 34°37' E 135°26'0 0.0
2016-Jul-17 23:28N 34°37' E 135°26'0 0.0
2016-Jul-17 22:22N 34°37' E 135°26'0 0.0
2016-Jul-17 21:28N 34°37' E 135°26'0 0.0
2016-Jul-17 20:31N 34°37' E 135°26'1111.9
2016-Jul-17 19:33N 34°35' E 135°12'16 0.5
2016-Jul-16 09:34N 34°35' E 134°52'  

Dump ship's entire track history